Terminal Aerodrome Forecast
Issued by NWS Blacksburg, VA

Home | Current Version | Previous Version | Text Only | Print | Product List | Glossary On
Versions: 1 2 3 4 5 6 7 8 9 10 11 12 13 14 15 16 17 18 19 20 21 22 23 24 25 26 27
000
FTUS41 KRNK 240202 AAA
TAFBLF
TAF AMD
KBLF 240202Z 2402/2424 10010KT P6SM -RA SCT008 OVC040
      TEMPO 2402/2404 4SM RA OVC008
     FM240400 09009KT 4SM RA OVC003
     FM241000 09009KT P6SM OVC008
     FM241300 09009KT 4SM -SHRA OVC010=

USA.gov is the U.S. government's official web portal to all federal, state and local government web resources and services.